sensor_id;sensor_type;location;lat;lon;timestamp;P1;durP1;ratioP1;P2;durP2;ratioP2
49566;SDS011;35472;50.514;30.448;2022-08-20T00:00:32;3.33;;;1.98;;
49566;SDS011;35472;50.514;30.448;2022-08-20T00:03:12;4.65;;;2.47;;
49566;SDS011;35472;50.514;30.448;2022-08-20T00:05:41;2.97;;;1.60;;
49566;SDS011;35472;50.514;30.448;2022-08-20T00:08:09;3.15;;;2.13;;
49566;SDS011;35472;50.514;30.448;2022-08-20T00:10:37;1.98;;;1.80;;
49566;SDS011;35472;50.514;30.448;2022-08-20T00:13:06;4.15;;;2.42;;
49566;SDS011;35472;50.514;30.448;2022-08-20T00:15:34;2.90;;;2.60;;
49566;SDS011;35472;50.514;30.448;2022-08-20T00:18:00;5.43;;;2.38;;
49566;SDS011;35472;50.514;30.448;2022-08-20T00:20:27;2.20;;;2.00;;
49566;SDS011;35472;50.514;30.448;2022-08-20T00:22:55;2.15;;;1.95;;
49566;SDS011;35472;50.514;30.448;2022-08-20T00:25:21;2.17;;;1.70;;
49566;SDS011;35472;50.514;30.448;2022-08-20T00:27:48;2.47;;;2.10;;
49566;SDS011;35472;50.514;30.448;2022-08-20T00:30:13;2.00;;;1.75;;
49566;SDS011;35472;50.514;30.448;2022-08-20T00:32:51;2.97;;;2.50;;
49566;SDS011;35472;50.514;30.448;2022-08-20T00:35:20;3.13;;;2.20;;
49566;SDS011;35472;50.514;30.448;2022-08-20T00:37:52;3.70;;;2.38;;
49566;SDS011;35472;50.514;30.448;2022-08-20T00:40:20;5.20;;;2.00;;
49566;SDS011;35472;50.514;30.448;2022-08-20T00:42:50;3.17;;;2.22;;
49566;SDS011;35472;50.514;30.448;2022-08-20T00:45:19;4.35;;;2.17;;
49566;SDS011;35472;50.514;30.448;2022-08-20T00:47:45;2.65;;;2.10;;
49566;SDS011;35472;50.514;30.448;2022-08-20T00:50:12;3.50;;;2.25;;
49566;SDS011;35472;50.514;30.448;2022-08-20T00:52:42;2.33;;;2.13;;
49566;SDS011;35472;50.514;30.448;2022-08-20T00:55:10;3.92;;;2.08;;
49566;SDS011;35472;50.514;30.448;2022-08-20T00:57:39;2.55;;;1.95;;
49566;SDS011;35472;50.514;30.448;2022-08-20T01:00:12;3.22;;;2.40;;
49566;SDS011;35472;50.514;30.448;2022-08-20T01:02:41;1.70;;;1.60;;
49566;SDS011;35472;50.514;30.448;2022-08-20T01:05:07;3.97;;;1.83;;
49566;SDS011;35472;50.514;30.448;2022-08-20T01:07:33;5.55;;;2.65;;
49566;SDS011;35472;50.514;30.448;2022-08-20T01:10:06;3.15;;;1.85;;
49566;SDS011;35472;50.514;30.448;2022-08-20T01:12:32;5.55;;;2.08;;
49566;SDS011;35472;50.514;30.448;2022-08-20T01:14:58;1.77;;;1.60;;
49566;SDS011;35472;50.514;30.448;2022-08-20T01:17:27;3.80;;;2.17;;
49566;SDS011;35472;50.514;30.448;2022-08-20T01:31:19;2.70;;;2.42;;
49566;SDS011;35472;50.514;30.448;2022-08-20T01:33:46;2.65;;;2.45;;
49566;SDS011;35472;50.514;30.448;2022-08-20T01:36:12;5.30;;;3.13;;
49566;SDS011;35472;50.514;30.448;2022-08-20T01:38:40;5.57;;;3.47;;
49566;SDS011;35472;50.514;30.448;2022-08-20T01:43:38;5.25;;;3.65;;
49566;SDS011;35472;50.514;30.448;2022-08-20T01:46:06;3.28;;;2.97;;
49566;SDS011;35472;50.514;30.448;2022-08-20T01:48:34;5.13;;;3.65;;
49566;SDS011;35472;50.514;30.448;2022-08-20T01:51:04;3.30;;;3.03;;
49566;SDS011;35472;50.514;30.448;2022-08-20T01:53:35;3.92;;;3.05;;
49566;SDS011;35472;50.514;30.448;2022-08-20T01:56:07;4.15;;;3.72;;
49566;SDS011;35472;50.514;30.448;2022-08-20T01:58:35;4.30;;;3.42;;
49566;SDS011;35472;50.514;30.448;2022-08-20T02:01:03;2.97;;;2.72;;
49566;SDS011;35472;50.514;30.448;2022-08-20T02:03:29;3.22;;;2.92;;
49566;SDS011;35472;50.514;30.448;2022-08-20T02:05:55;4.70;;;3.13;;
49566;SDS011;35472;50.514;30.448;2022-08-20T02:08:24;4.15;;;3.10;;
49566;SDS011;35472;50.514;30.448;2022-08-20T02:10:49;4.95;;;2.95;;
49566;SDS011;35472;50.514;30.448;2022-08-20T02:13:15;4.47;;;3.35;;
49566;SDS011;35472;50.514;30.448;2022-08-20T02:15:41;3.47;;;2.83;;
49566;SDS011;35472;50.514;30.448;2022-08-20T02:18:13;2.35;;;2.00;;
49566;SDS011;35472;50.514;30.448;2022-08-20T02:20:39;3.03;;;2.72;;
49566;SDS011;35472;50.514;30.448;2022-08-20T02:23:06;2.75;;;2.47;;
49566;SDS011;35472;50.514;30.448;2022-08-20T02:25:33;2.85;;;2.25;;
49566;SDS011;35472;50.514;30.448;2022-08-20T02:28:02;2.85;;;2.55;;
49566;SDS011;35472;50.514;30.448;2022-08-20T02:30:31;5.07;;;2.55;;
49566;SDS011;35472;50.514;30.448;2022-08-20T02:33:00;16.27;;;3.67;;
49566;SDS011;35472;50.514;30.448;2022-08-20T02:35:26;2.35;;;2.05;;
49566;SDS011;35472;50.514;30.448;2022-08-20T02:37:52;2.22;;;1.83;;
49566;SDS011;35472;50.514;30.448;2022-08-20T02:40:19;2.53;;;2.10;;
49566;SDS011;35472;50.514;30.448;2022-08-20T02:42:46;2.85;;;2.10;;
49566;SDS011;35472;50.514;30.448;2022-08-20T02:45:13;3.03;;;2.70;;
49566;SDS011;35472;50.514;30.448;2022-08-20T02:47:40;2.83;;;2.33;;
49566;SDS011;35472;50.514;30.448;2022-08-20T02:50:10;4.40;;;2.85;;
49566;SDS011;35472;50.514;30.448;2022-08-20T02:52:39;4.93;;;2.15;;
49566;SDS011;35472;50.514;30.448;2022-08-20T02:55:05;3.85;;;2.58;;
49566;SDS011;35472;50.514;30.448;2022-08-20T02:57:31;7.00;;;2.72;;
49566;SDS011;35472;50.514;30.448;2022-08-20T02:59:57;3.15;;;2.40;;
49566;SDS011;35472;50.514;30.448;2022-08-20T03:02:22;3.33;;;2.47;;
49566;SDS011;35472;50.514;30.448;2022-08-20T03:04:48;4.45;;;2.50;;
49566;SDS011;35472;50.514;30.448;2022-08-20T03:07:14;2.85;;;2.65;;
49566;SDS011;35472;50.514;30.448;2022-08-20T03:09:39;2.38;;;2.10;;
49566;SDS011;35472;50.514;30.448;2022-08-20T03:12:06;2.53;;;2.28;;
49566;SDS011;35472;50.514;30.448;2022-08-20T03:14:32;3.58;;;2.60;;
49566;SDS011;35472;50.514;30.448;2022-08-20T03:16:58;4.47;;;3.15;;
49566;SDS011;35472;50.514;30.448;2022-08-20T03:19:24;4.18;;;2.08;;
49566;SDS011;35472;50.514;30.448;2022-08-20T03:21:50;2.40;;;1.83;;
49566;SDS011;35472;50.514;30.448;2022-08-20T03:24:16;2.03;;;1.83;;
49566;SDS011;35472;50.514;30.448;2022-08-20T03:26:41;2.53;;;2.33;;
49566;SDS011;35472;50.514;30.448;2022-08-20T03:29:07;2.25;;;2.03;;
49566;SDS011;35472;50.514;30.448;2022-08-20T03:31:32;3.67;;;2.50;;
49566;SDS011;35472;50.514;30.448;2022-08-20T03:33:58;2.17;;;1.83;;
49566;SDS011;35472;50.514;30.448;2022-08-20T03:36:24;2.97;;;2.28;;
49566;SDS011;35472;50.514;30.448;2022-08-20T03:38:51;2.67;;;2.05;;
49566;SDS011;35472;50.514;30.448;2022-08-20T03:41:16;2.72;;;2.28;;
49566;SDS011;35472;50.514;30.448;2022-08-20T03:43:43;2.78;;;2.53;;
49566;SDS011;35472;50.514;30.448;2022-08-20T03:46:09;2.95;;;2.67;;
49566;SDS011;35472;50.514;30.448;2022-08-20T03:48:35;2.70;;;1.85;;
49566;SDS011;35472;50.514;30.448;2022-08-20T03:51:00;3.03;;;2.45;;
49566;SDS011;35472;50.514;30.448;2022-08-20T03:53:27;2.65;;;2.20;;
49566;SDS011;35472;50.514;30.448;2022-08-20T03:55:55;4.10;;;2.25;;
49566;SDS011;35472;50.514;30.448;2022-08-20T03:58:25;5.00;;;1.67;;
49566;SDS011;35472;50.514;30.448;2022-08-20T04:00:54;3.45;;;2.08;;
49566;SDS011;35472;50.514;30.448;2022-08-20T04:03:20;2.90;;;1.67;;
49566;SDS011;35472;50.514;30.448;2022-08-20T04:05:47;2.17;;;1.92;;
49566;SDS011;35472;50.514;30.448;2022-08-20T04:08:31;3.13;;;2.35;;
49566;SDS011;35472;50.514;30.448;2022-08-20T04:10:57;4.57;;;2.55;;
49566;SDS011;35472;50.514;30.448;2022-08-20T04:13:22;3.58;;;1.95;;
49566;SDS011;35472;50.514;30.448;2022-08-20T04:15:49;3.30;;;2.45;;
49566;SDS011;35472;50.514;30.448;2022-08-20T04:18:17;4.35;;;2.38;;
49566;SDS011;35472;50.514;30.448;2022-08-20T04:20:45;2.53;;;2.33;;
49566;SDS011;35472;50.514;30.448;2022-08-20T04:23:11;2.47;;;2.28;;
49566;SDS011;35472;50.514;30.448;2022-08-20T04:25:38;9.73;;;4.68;;
49566;SDS011;35472;50.514;30.448;2022-08-20T04:28:09;2.28;;;2.08;;
49566;SDS011;35472;50.514;30.448;2022-08-20T04:30:38;3.75;;;3.22;;
49566;SDS011;35472;50.514;30.448;2022-08-20T04:33:03;3.22;;;2.92;;
49566;SDS011;35472;50.514;30.448;2022-08-20T04:35:29;3.38;;;3.10;;
49566;SDS011;35472;50.514;30.448;2022-08-20T04:37:56;3.17;;;2.45;;
49566;SDS011;35472;50.514;30.448;2022-08-20T04:40:27;2.53;;;2.33;;
49566;SDS011;35472;50.514;30.448;2022-08-20T04:43:12;2.80;;;2.60;;
49566;SDS011;35472;50.514;30.448;2022-08-20T04:45:38;3.65;;;3.35;;
49566;SDS011;35472;50.514;30.448;2022-08-20T04:48:04;3.05;;;2.72;;
49566;SDS011;35472;50.514;30.448;2022-08-20T04:50:31;7.05;;;5.78;;
49566;SDS011;35472;50.514;30.448;2022-08-20T04:53:01;2.58;;;2.28;;
49566;SDS011;35472;50.514;30.448;2022-08-20T04:55:28;2.55;;;2.35;;
49566;SDS011;35472;50.514;30.448;2022-08-20T04:57:55;4.63;;;2.30;;
49566;SDS011;35472;50.514;30.448;2022-08-20T05:00:26;2.72;;;1.85;;
49566;SDS011;35472;50.514;30.448;2022-08-20T05:02:52;4.47;;;3.03;;
49566;SDS011;35472;50.514;30.448;2022-08-20T05:05:17;3.03;;;2.67;;
49566;SDS011;35472;50.514;30.448;2022-08-20T05:07:44;3.45;;;3.03;;
49566;SDS011;35472;50.514;30.448;2022-08-20T05:10:11;4.25;;;2.88;;
49566;SDS011;35472;50.514;30.448;2022-08-20T05:12:41;3.75;;;2.60;;
49566;SDS011;35472;50.514;30.448;2022-08-20T05:15:08;3.97;;;2.20;;
49566;SDS011;35472;50.514;30.448;2022-08-20T05:17:39;2.55;;;2.25;;
49566;SDS011;35472;50.514;30.448;2022-08-20T05:20:06;4.60;;;2.13;;
49566;SDS011;35472;50.514;30.448;2022-08-20T05:22:33;2.53;;;2.33;;
49566;SDS011;35472;50.514;30.448;2022-08-20T05:24:59;1.83;;;1.67;;
49566;SDS011;35472;50.514;30.448;2022-08-20T05:27:25;2.63;;;2.13;;
49566;SDS011;35472;50.514;30.448;2022-08-20T05:29:52;3.00;;;2.03;;
49566;SDS011;35472;50.514;30.448;2022-08-20T05:32:20;3.38;;;1.85;;
49566;SDS011;35472;50.514;30.448;2022-08-20T05:34:46;4.13;;;2.95;;
49566;SDS011;35472;50.514;30.448;2022-08-20T05:37:12;3.40;;;2.40;;
49566;SDS011;35472;50.514;30.448;2022-08-20T05:39:37;2.83;;;2.50;;
49566;SDS011;35472;50.514;30.448;2022-08-20T05:42:03;3.67;;;2.40;;
49566;SDS011;35472;50.514;30.448;2022-08-20T05:44:28;3.28;;;2.28;;
49566;SDS011;35472;50.514;30.448;2022-08-20T05:46:54;2.65;;;1.92;;
49566;SDS011;35472;50.514;30.448;2022-08-20T05:49:19;2.22;;;2.03;;
49566;SDS011;35472;50.514;30.448;2022-08-20T05:51:46;2.63;;;2.42;;
49566;SDS011;35472;50.514;30.448;2022-08-20T05:54:12;4.72;;;2.70;;
49566;SDS011;35472;50.514;30.448;2022-08-20T05:56:38;3.88;;;2.38;;
49566;SDS011;35472;50.514;30.448;2022-08-20T05:59:04;3.35;;;2.47;;
49566;SDS011;35472;50.514;30.448;2022-08-20T06:01:32;3.38;;;2.28;;
49566;SDS011;35472;50.514;30.448;2022-08-20T06:03:59;2.88;;;2.58;;
49566;SDS011;35472;50.514;30.448;2022-08-20T06:06:43;4.32;;;2.50;;
49566;SDS011;35472;50.514;30.448;2022-08-20T06:09:09;2.75;;;2.03;;
49566;SDS011;35472;50.514;30.448;2022-08-20T06:11:34;4.10;;;2.30;;
49566;SDS011;35472;50.514;30.448;2022-08-20T06:14:00;2.97;;;2.13;;
49566;SDS011;35472;50.514;30.448;2022-08-20T06:16:26;4.05;;;2.55;;
49566;SDS011;35472;50.514;30.448;2022-08-20T06:18:53;4.20;;;2.30;;
49566;SDS011;35472;50.514;30.448;2022-08-20T06:21:18;2.38;;;2.13;;
49566;SDS011;35472;50.514;30.448;2022-08-20T06:23:44;2.08;;;1.85;;
49566;SDS011;35472;50.514;30.448;2022-08-20T06:26:09;6.22;;;2.30;;
49566;SDS011;35472;50.514;30.448;2022-08-20T06:28:35;2.40;;;2.20;;
49566;SDS011;35472;50.514;30.448;2022-08-20T06:31:01;4.05;;;2.15;;
49566;SDS011;35472;50.514;30.448;2022-08-20T06:33:27;2.17;;;1.75;;
49566;SDS011;35472;50.514;30.448;2022-08-20T06:35:52;1.95;;;1.80;;
49566;SDS011;35472;50.514;30.448;2022-08-20T06:38:18;2.30;;;2.10;;
49566;SDS011;35472;50.514;30.448;2022-08-20T06:40:44;2.53;;;2.08;;
49566;SDS011;35472;50.514;30.448;2022-08-20T06:43:10;2.17;;;1.83;;
49566;SDS011;35472;50.514;30.448;2022-08-20T06:45:36;1.77;;;1.67;;
49566;SDS011;35472;50.514;30.448;2022-08-20T06:48:09;2.28;;;1.90;;
49566;SDS011;35472;50.514;30.448;2022-08-20T06:53:05;1.30;;;1.20;;
49566;SDS011;35472;50.514;30.448;2022-08-20T06:55:32;1.80;;;1.70;;
49566;SDS011;35472;50.514;30.448;2022-08-20T06:57:58;2.75;;;1.80;;
49566;SDS011;35472;50.514;30.448;2022-08-20T07:00:26;2.97;;;1.42;;
49566;SDS011;35472;50.514;30.448;2022-08-20T07:02:53;1.20;;;1.10;;
49566;SDS011;35472;50.514;30.448;2022-08-20T07:05:19;2.15;;;1.55;;
49566;SDS011;35472;50.514;30.448;2022-08-20T07:07:45;1.70;;;1.60;;
49566;SDS011;35472;50.514;30.448;2022-08-20T07:10:15;1.92;;;1.50;;
49566;SDS011;35472;50.514;30.448;2022-08-20T07:12:42;2.33;;;1.63;;
49566;SDS011;35472;50.514;30.448;2022-08-20T07:15:10;2.33;;;1.45;;
49566;SDS011;35472;50.514;30.448;2022-08-20T07:17:38;1.55;;;1.45;;
49566;SDS011;35472;50.514;30.448;2022-08-20T07:20:05;2.35;;;1.42;;
49566;SDS011;35472;50.514;30.448;2022-08-20T07:22:32;1.17;;;1.08;;
49566;SDS011;35472;50.514;30.448;2022-08-20T07:25:03;1.60;;;1.17;;
49566;SDS011;35472;50.514;30.448;2022-08-20T07:27:29;1.80;;;1.52;;
49566;SDS011;35472;50.514;30.448;2022-08-20T07:29:55;2.13;;;1.50;;
49566;SDS011;35472;50.514;30.448;2022-08-20T07:32:39;1.30;;;1.10;;
49566;SDS011;35472;50.514;30.448;2022-08-20T07:35:06;2.08;;;1.45;;
49566;SDS011;35472;50.514;30.448;2022-08-20T07:37:38;1.70;;;1.52;;
49566;SDS011;35472;50.514;30.448;2022-08-20T07:40:10;1.73;;;1.38;;
49566;SDS011;35472;50.514;30.448;2022-08-20T07:42:37;2.50;;;1.27;;
49566;SDS011;35472;50.514;30.448;2022-08-20T07:45:06;1.67;;;1.30;;
49566;SDS011;35472;50.514;30.448;2022-08-20T07:47:38;5.13;;;2.25;;
49566;SDS011;35472;50.514;30.448;2022-08-20T07:50:06;2.85;;;1.30;;
49566;SDS011;35472;50.514;30.448;2022-08-20T07:52:37;2.83;;;1.70;;
49566;SDS011;35472;50.514;30.448;2022-08-20T07:55:07;1.63;;;1.52;;
49566;SDS011;35472;50.514;30.448;2022-08-20T07:57:35;2.35;;;1.17;;
49566;SDS011;35472;50.514;30.448;2022-08-20T08:00:05;2.50;;;1.50;;
49566;SDS011;35472;50.514;30.448;2022-08-20T08:02:34;2.05;;;1.60;;
49566;SDS011;35472;50.514;30.448;2022-08-20T08:05:00;1.75;;;1.63;;
49566;SDS011;35472;50.514;30.448;2022-08-20T08:07:25;1.85;;;1.42;;
49566;SDS011;35472;50.514;30.448;2022-08-20T08:09:51;2.30;;;1.65;;
49566;SDS011;35472;50.514;30.448;2022-08-20T08:12:18;1.60;;;1.33;;
49566;SDS011;35472;50.514;30.448;2022-08-20T08:14:45;1.42;;;1.25;;
49566;SDS011;35472;50.514;30.448;2022-08-20T08:17:12;1.20;;;1.00;;
49566;SDS011;35472;50.514;30.448;2022-08-20T08:19:42;1.48;;;1.38;;
49566;SDS011;35472;50.514;30.448;2022-08-20T08:22:13;1.45;;;1.35;;
49566;SDS011;35472;50.514;30.448;2022-08-20T08:24:42;3.25;;;2.92;;
49566;SDS011;35472;50.514;30.448;2022-08-20T08:27:09;1.27;;;1.17;;
49566;SDS011;35472;50.514;30.448;2022-08-20T08:29:35;1.95;;;1.00;;
49566;SDS011;35472;50.514;30.448;2022-08-20T08:32:04;1.60;;;1.20;;
49566;SDS011;35472;50.514;30.448;2022-08-20T08:34:31;2.95;;;1.40;;
49566;SDS011;35472;50.514;30.448;2022-08-20T08:36:57;2.00;;;1.30;;
49566;SDS011;35472;50.514;30.448;2022-08-20T08:39:24;2.10;;;1.10;;
49566;SDS011;35472;50.514;30.448;2022-08-20T08:41:50;4.47;;;1.63;;
49566;SDS011;35472;50.514;30.448;2022-08-20T08:44:21;1.10;;;0.90;;
49566;SDS011;35472;50.514;30.448;2022-08-20T08:46:59;3.40;;;1.10;;
49566;SDS011;35472;50.514;30.448;2022-08-20T08:49:28;1.58;;;1.48;;
49566;SDS011;35472;50.514;30.448;2022-08-20T08:51:58;1.70;;;1.60;;
49566;SDS011;35472;50.514;30.448;2022-08-20T08:54:29;2.47;;;1.30;;
49566;SDS011;35472;50.514;30.448;2022-08-20T08:56:56;1.63;;;1.02;;
49566;SDS011;35472;50.514;30.448;2022-08-20T08:59:23;0.98;;;0.98;;
49566;SDS011;35472;50.514;30.448;2022-08-20T09:01:52;1.67;;;1.50;;
49566;SDS011;35472;50.514;30.448;2022-08-20T09:04:20;3.63;;;2.08;;
49566;SDS011;35472;50.514;30.448;2022-08-20T09:06:47;2.90;;;1.33;;
49566;SDS011;35472;50.514;30.448;2022-08-20T09:09:36;1.95;;;1.50;;
49566;SDS011;35472;50.514;30.448;2022-08-20T09:12:03;2.65;;;1.42;;
49566;SDS011;35472;50.514;30.448;2022-08-20T09:17:01;0.98;;;0.82;;
49566;SDS011;35472;50.514;30.448;2022-08-20T09:19:27;1.38;;;1.27;;
49566;SDS011;35472;50.514;30.448;2022-08-20T09:21:52;2.50;;;1.40;;
49566;SDS011;35472;50.514;30.448;2022-08-20T09:24:18;2.20;;;1.67;;
49566;SDS011;35472;50.514;30.448;2022-08-20T09:26:43;1.70;;;1.38;;
49566;SDS011;35472;50.514;30.448;2022-08-20T09:29:09;1.50;;;1.40;;
49566;SDS011;35472;50.514;30.448;2022-08-20T09:31:34;1.70;;;1.60;;
49566;SDS011;35472;50.514;30.448;2022-08-20T09:34:00;1.40;;;1.27;;
49566;SDS011;35472;50.514;30.448;2022-08-20T09:36:26;1.27;;;0.90;;
49566;SDS011;35472;50.514;30.448;2022-08-20T09:38:52;1.35;;;0.90;;
49566;SDS011;35472;50.514;30.448;2022-08-20T09:41:18;2.45;;;1.00;;
49566;SDS011;35472;50.514;30.448;2022-08-20T09:43:43;1.63;;;1.00;;
49566;SDS011;35472;50.514;30.448;2022-08-20T09:46:09;1.38;;;1.00;;
49566;SDS011;35472;50.514;30.448;2022-08-20T09:48:34;1.30;;;1.20;;
49566;SDS011;35472;50.514;30.448;2022-08-20T09:51:00;1.88;;;1.77;;
49566;SDS011;35472;50.514;30.448;2022-08-20T09:53:26;1.02;;;1.02;;
49566;SDS011;35472;50.514;30.448;2022-08-20T09:55:52;1.08;;;1.00;;
49566;SDS011;35472;50.514;30.448;2022-08-20T10:00:48;0.90;;;0.80;;
49566;SDS011;35472;50.514;30.448;2022-08-20T10:03:13;1.75;;;0.82;;
49566;SDS011;35472;50.514;30.448;2022-08-20T10:05:39;0.73;;;0.73;;
49566;SDS011;35472;50.514;30.448;2022-08-20T10:08:05;1.42;;;1.17;;
49566;SDS011;35472;50.514;30.448;2022-08-20T10:10:32;2.05;;;1.52;;
49566;SDS011;35472;50.514;30.448;2022-08-20T10:12:58;1.67;;;1.20;;
49566;SDS011;35472;50.514;30.448;2022-08-20T10:15:23;1.55;;;1.33;;
49566;SDS011;35472;50.514;30.448;2022-08-20T10:17:48;2.53;;;1.20;;
49566;SDS011;35472;50.514;30.448;2022-08-20T10:20:14;2.85;;;1.15;;
49566;SDS011;35472;50.514;30.448;2022-08-20T10:22:40;1.10;;;1.00;;
49566;SDS011;35472;50.514;30.448;2022-08-20T10:25:05;2.22;;;1.30;;
49566;SDS011;35472;50.514;30.448;2022-08-20T10:27:32;1.30;;;1.20;;
49566;SDS011;35472;50.514;30.448;2022-08-20T10:29:58;1.30;;;0.95;;
49566;SDS011;35472;50.514;30.448;2022-08-20T10:32:23;1.80;;;0.80;;
49566;SDS011;35472;50.514;30.448;2022-08-20T10:34:49;1.42;;;0.90;;
49566;SDS011;35472;50.514;30.448;2022-08-20T10:37:15;1.20;;;1.10;;
49566;SDS011;35472;50.514;30.448;2022-08-20T10:39:43;1.60;;;1.35;;
49566;SDS011;35472;50.514;30.448;2022-08-20T10:42:09;1.15;;;1.05;;
49566;SDS011;35472;50.514;30.448;2022-08-20T10:44:35;1.70;;;1.55;;
49566;SDS011;35472;50.514;30.448;2022-08-20T10:47:13;1.30;;;1.17;;
49566;SDS011;35472;50.514;30.448;2022-08-20T10:49:48;2.30;;;1.10;;
49566;SDS011;35472;50.514;30.448;2022-08-20T10:52:15;1.45;;;1.02;;
49566;SDS011;35472;50.514;30.448;2022-08-20T10:54:40;2.45;;;1.20;;
49566;SDS011;35472;50.514;30.448;2022-08-20T10:57:07;1.05;;;0.85;;
49566;SDS011;35472;50.514;30.448;2022-08-20T10:59:41;1.88;;;1.52;;
49566;SDS011;35472;50.514;30.448;2022-08-20T11:02:08;1.00;;;1.00;;
49566;SDS011;35472;50.514;30.448;2022-08-20T11:04:34;3.72;;;1.08;;
49566;SDS011;35472;50.514;30.448;2022-08-20T11:07:17;1.48;;;1.33;;
49566;SDS011;35472;50.514;30.448;2022-08-20T11:09:46;2.40;;;2.20;;
49566;SDS011;35472;50.514;30.448;2022-08-20T11:12:13;4.32;;;2.15;;
49566;SDS011;35472;50.514;30.448;2022-08-20T11:14:40;1.30;;;1.20;;
49566;SDS011;35472;50.514;30.448;2022-08-20T11:17:05;2.22;;;1.45;;
49566;SDS011;35472;50.514;30.448;2022-08-20T11:19:32;1.10;;;1.10;;
49566;SDS011;35472;50.514;30.448;2022-08-20T11:21:58;2.42;;;1.27;;
49566;SDS011;35472;50.514;30.448;2022-08-20T11:24:23;1.85;;;1.10;;
49566;SDS011;35472;50.514;30.448;2022-08-20T11:26:49;1.52;;;1.33;;
49566;SDS011;35472;50.514;30.448;2022-08-20T11:29:17;1.33;;;1.23;;
49566;SDS011;35472;50.514;30.448;2022-08-20T11:31:42;3.25;;;2.25;;
49566;SDS011;35472;50.514;30.448;2022-08-20T11:34:08;1.63;;;1.42;;
49566;SDS011;35472;50.514;30.448;2022-08-20T11:36:33;2.05;;;1.40;;
49566;SDS011;35472;50.514;30.448;2022-08-20T11:38:59;1.70;;;1.40;;
49566;SDS011;35472;50.514;30.448;2022-08-20T11:41:24;3.40;;;1.88;;
49566;SDS011;35472;50.514;30.448;2022-08-20T11:43:50;2.65;;;2.45;;
49566;SDS011;35472;50.514;30.448;2022-08-20T11:46:15;1.30;;;1.20;;
49566;SDS011;35472;50.514;30.448;2022-08-20T11:48:41;2.20;;;1.85;;
49566;SDS011;35472;50.514;30.448;2022-08-20T11:51:06;4.07;;;1.60;;
49566;SDS011;35472;50.514;30.448;2022-08-20T11:53:31;2.85;;;2.20;;
49566;SDS011;35472;50.514;30.448;2022-08-20T11:55:57;2.08;;;1.88;;
49566;SDS011;35472;50.514;30.448;2022-08-20T11:58:23;1.73;;;1.63;;
49566;SDS011;35472;50.514;30.448;2022-08-20T12:00:48;2.63;;;1.38;;
49566;SDS011;35472;50.514;30.448;2022-08-20T12:03:14;1.70;;;1.48;;
49566;SDS011;35472;50.514;30.448;2022-08-20T12:05:40;2.35;;;2.15;;
49566;SDS011;35472;50.514;30.448;2022-08-20T12:08:07;1.67;;;1.58;;
49566;SDS011;35472;50.514;30.448;2022-08-20T12:10:34;1.90;;;1.70;;
49566;SDS011;35472;50.514;30.448;2022-08-20T12:13:01;1.70;;;1.60;;
49566;SDS011;35472;50.514;30.448;2022-08-20T12:15:26;2.05;;;1.85;;
49566;SDS011;35472;50.514;30.448;2022-08-20T12:17:52;1.98;;;1.77;;
49566;SDS011;35472;50.514;30.448;2022-08-20T12:20:18;2.58;;;2.10;;
49566;SDS011;35472;50.514;30.448;2022-08-20T12:22:44;2.33;;;2.17;;
49566;SDS011;35472;50.514;30.448;2022-08-20T12:25:09;2.55;;;1.90;;
49566;SDS011;35472;50.514;30.448;2022-08-20T12:27:35;1.75;;;1.65;;
49566;SDS011;35472;50.514;30.448;2022-08-20T12:30:04;2.22;;;2.05;;
49566;SDS011;35472;50.514;30.448;2022-08-20T12:32:35;2.63;;;1.80;;
49566;SDS011;35472;50.514;30.448;2022-08-20T12:35:00;2.05;;;1.95;;
49566;SDS011;35472;50.514;30.448;2022-08-20T12:37:27;2.70;;;2.50;;
49566;SDS011;35472;50.514;30.448;2022-08-20T12:39:55;2.63;;;1.83;;
49566;SDS011;35472;50.514;30.448;2022-08-20T12:42:22;2.53;;;2.25;;
49566;SDS011;35472;50.514;30.448;2022-08-20T12:44:49;2.30;;;2.10;;
49566;SDS011;35472;50.514;30.448;2022-08-20T12:47:23;2.17;;;1.85;;
49566;SDS011;35472;50.514;30.448;2022-08-20T12:49:52;2.33;;;1.90;;
49566;SDS011;35472;50.514;30.448;2022-08-20T12:52:22;5.05;;;2.00;;
49566;SDS011;35472;50.514;30.448;2022-08-20T12:54:49;1.98;;;1.88;;
49566;SDS011;35472;50.514;30.448;2022-08-20T12:57:25;2.42;;;2.22;;
49566;SDS011;35472;50.514;30.448;2022-08-20T13:00:00;2.08;;;1.88;;
49566;SDS011;35472;50.514;30.448;2022-08-20T13:02:32;2.17;;;2.00;;
49566;SDS011;35472;50.514;30.448;2022-08-20T13:04:57;2.85;;;2.15;;
49566;SDS011;35472;50.514;30.448;2022-08-20T13:07:23;1.85;;;1.70;;
49566;SDS011;35472;50.514;30.448;2022-08-20T13:09:49;2.97;;;2.25;;
49566;SDS011;35472;50.514;30.448;2022-08-20T13:12:14;1.95;;;1.85;;
49566;SDS011;35472;50.514;30.448;2022-08-20T13:14:40;2.05;;;1.95;;
49566;SDS011;35472;50.514;30.448;2022-08-20T13:17:06;2.00;;;1.65;;
49566;SDS011;35472;50.514;30.448;2022-08-20T13:19:33;1.80;;;1.70;;
49566;SDS011;35472;50.514;30.448;2022-08-20T13:22:00;2.40;;;2.20;;
49566;SDS011;35472;50.514;30.448;2022-08-20T13:24:25;2.00;;;1.90;;
49566;SDS011;35472;50.514;30.448;2022-08-20T13:26:51;3.08;;;1.80;;
49566;SDS011;35472;50.514;30.448;2022-08-20T13:29:17;2.63;;;2.42;;
49566;SDS011;35472;50.514;30.448;2022-08-20T13:31:43;2.63;;;1.92;;
49566;SDS011;35472;50.514;30.448;2022-08-20T13:34:08;8.40;;;2.13;;
49566;SDS011;35472;50.514;30.448;2022-08-20T13:36:34;2.33;;;2.13;;
49566;SDS011;35472;50.514;30.448;2022-08-20T13:38:59;2.22;;;1.80;;
49566;SDS011;35472;50.514;30.448;2022-08-20T13:41:26;2.30;;;1.45;;
49566;SDS011;35472;50.514;30.448;2022-08-20T13:43:51;2.65;;;2.22;;
49566;SDS011;35472;50.514;30.448;2022-08-20T13:46:16;3.13;;;1.85;;
49566;SDS011;35472;50.514;30.448;2022-08-20T13:48:42;2.00;;;1.90;;
49566;SDS011;35472;50.514;30.448;2022-08-20T13:51:08;1.85;;;1.75;;
49566;SDS011;35472;50.514;30.448;2022-08-20T13:53:34;3.10;;;2.78;;
49566;SDS011;35472;50.514;30.448;2022-08-20T13:56:00;2.20;;;2.00;;
49566;SDS011;35472;50.514;30.448;2022-08-20T13:58:26;3.42;;;1.98;;
49566;SDS011;35472;50.514;30.448;2022-08-20T14:00:51;1.95;;;1.85;;
49566;SDS011;35472;50.514;30.448;2022-08-20T14:03:18;3.05;;;2.03;;
49566;SDS011;35472;50.514;30.448;2022-08-20T14:05:46;3.97;;;2.13;;
49566;SDS011;35472;50.514;30.448;2022-08-20T14:10:45;1.98;;;1.40;;
49566;SDS011;35472;50.514;30.448;2022-08-20T14:13:14;1.75;;;1.60;;
49566;SDS011;35472;50.514;30.448;2022-08-20T14:15:41;1.88;;;1.67;;
49566;SDS011;35472;50.514;30.448;2022-08-20T14:18:07;2.40;;;1.95;;
49566;SDS011;35472;50.514;30.448;2022-08-20T14:20:33;2.65;;;1.67;;
49566;SDS011;35472;50.514;30.448;2022-08-20T14:22:59;1.85;;;1.45;;
49566;SDS011;35472;50.514;30.448;2022-08-20T14:25:25;2.30;;;1.73;;
49566;SDS011;35472;50.514;30.448;2022-08-20T14:27:52;2.00;;;1.88;;
49566;SDS011;35472;50.514;30.448;2022-08-20T14:30:20;2.20;;;2.00;;
49566;SDS011;35472;50.514;30.448;2022-08-20T14:32:47;4.32;;;1.70;;
49566;SDS011;35472;50.514;30.448;2022-08-20T14:35:13;2.42;;;2.15;;
49566;SDS011;35472;50.514;30.448;2022-08-20T14:37:45;2.65;;;2.28;;
49566;SDS011;35472;50.514;30.448;2022-08-20T14:40:14;1.83;;;1.73;;
49566;SDS011;35472;50.514;30.448;2022-08-20T14:42:41;2.85;;;2.05;;
49566;SDS011;35472;50.514;30.448;2022-08-20T14:45:07;2.67;;;2.47;;
49566;SDS011;35472;50.514;30.448;2022-08-20T14:47:35;3.10;;;2.67;;
49566;SDS011;35472;50.514;30.448;2022-08-20T14:50:04;5.28;;;2.75;;
49566;SDS011;35472;50.514;30.448;2022-08-20T14:52:33;2.85;;;2.40;;
49566;SDS011;35472;50.514;30.448;2022-08-20T14:55:03;4.40;;;2.92;;
49566;SDS011;35472;50.514;30.448;2022-08-20T14:57:33;3.60;;;3.40;;